createdAt,value
2017-12-27T00:02:18.883Z,6.20
2017-12-27T00:04:53.110Z,7.68
2017-12-27T00:07:26.809Z,6.20
2017-12-27T00:10:00.721Z,5.55
2017-12-27T00:12:34.514Z,6.80
2017-12-27T00:15:08.454Z,6.78
2017-12-27T00:17:42.959Z,6.93
2017-12-27T00:20:16.706Z,6.18
2017-12-27T00:22:50.672Z,9.68
2017-12-27T00:25:24.472Z,7.47
2017-12-27T00:27:58.374Z,6.35
2017-12-27T00:30:32.791Z,6.18
2017-12-27T00:33:01.412Z,9.88
2017-12-27T00:35:30.752Z,6.28
2017-12-27T00:37:59.291Z,5.57
2017-12-27T00:40:28.277Z,7.43
2017-12-27T00:42:57.712Z,5.10
2017-12-27T00:45:26.352Z,5.07
2017-12-27T00:47:55.451Z,5.40
2017-12-27T00:50:24.792Z,4.07
2017-12-27T00:52:53.451Z,5.15
2017-12-27T00:55:22.635Z,5.57
2017-12-27T00:57:52.137Z,6.35
2017-12-27T01:00:21.311Z,4.70
2017-12-27T01:02:49.492Z,4.37
2017-12-27T01:05:17.575Z,4.22
2017-12-27T01:07:45.940Z,3.90
2017-12-27T01:10:14.972Z,4.05
2017-12-27T01:12:43.132Z,4.78
2017-12-27T01:15:12.132Z,4.12
2017-12-27T01:17:40.312Z,5.30
2017-12-27T01:20:08.752Z,4.95
2017-12-27T01:22:36.912Z,6.20
2017-12-27T01:25:05.092Z,4.68
2017-12-27T01:27:33.272Z,4.75
2017-12-27T01:30:01.552Z,4.43
2017-12-27T01:32:29.812Z,4.87
2017-12-27T01:34:58.092Z,6.70
2017-12-27T01:37:26.372Z,5.72
2017-12-27T01:39:54.752Z,5.68
2017-12-27T01:42:22.836Z,5.37
2017-12-27T01:44:52.012Z,7.03
2017-12-27T01:47:20.391Z,6.72
2017-12-27T01:49:48.472Z,6.32
2017-12-27T01:52:16.632Z,5.93
2017-12-27T01:54:45.292Z,5.65
2017-12-27T01:57:13.932Z,6.72
2017-12-27T01:59:42.992Z,6.32
2017-12-27T02:02:11.572Z,7.37
2017-12-27T02:04:40.052Z,5.00
2017-12-27T02:07:09.252Z,5.00
2017-12-27T02:09:37.571Z,4.82
2017-12-27T02:12:06.012Z,4.30
2017-12-27T02:14:34.432Z,4.25
2017-12-27T02:17:02.872Z,4.60
2017-12-27T02:19:31.152Z,5.25
2017-12-27T02:21:59.632Z,6.47
2017-12-27T02:24:27.812Z,6.15
2017-12-27T02:26:57.072Z,7.00
2017-12-27T02:29:25.352Z,5.10
2017-12-27T02:31:53.652Z,5.55
2017-12-27T02:34:21.893Z,8.02
2017-12-27T02:36:50.212Z,7.53
2017-12-27T02:39:41.933Z,6.97
2017-12-27T02:42:10.892Z,7.20
2017-12-27T02:44:39.092Z,6.95
2017-12-27T02:47:07.252Z,5.60
2017-12-27T02:49:35.534Z,6.12
2017-12-27T02:52:03.712Z,7.22
2017-12-27T02:54:32.592Z,6.65
2017-12-27T02:57:00.992Z,4.93
2017-12-27T02:59:30.016Z,7.15
2017-12-27T03:01:58.452Z,6.18
2017-12-27T03:04:26.833Z,5.90
2017-12-27T03:06:54.872Z,5.43
2017-12-27T03:09:23.052Z,5.10
2017-12-27T03:11:51.352Z,4.87
2017-12-27T03:14:19.412Z,4.85
2017-12-27T03:16:47.812Z,4.70
2017-12-27T03:19:17.052Z,5.15
2017-12-27T03:21:45.692Z,5.50
2017-12-27T03:24:15.092Z,5.32
2017-12-27T03:26:43.272Z,10.18
2017-12-27T03:29:12.794Z,5.53
2017-12-27T03:31:41.032Z,6.15
2017-12-27T03:34:09.312Z,5.15
2017-12-27T03:36:37.692Z,6.25
2017-12-27T03:39:06.049Z,10.90
2017-12-27T03:41:34.312Z,9.55
2017-12-27T03:44:02.612Z,9.32
2017-12-27T03:46:30.892Z,7.40
2017-12-27T03:48:59.072Z,6.68
2017-12-27T03:51:27.972Z,5.37
2017-12-27T03:53:57.032Z,6.95
2017-12-27T03:56:25.172Z,6.05
2017-12-27T03:58:53.492Z,5.30
2017-12-27T04:01:21.972Z,6.62
2017-12-27T04:03:50.132Z,5.28
2017-12-27T04:06:18.212Z,5.87
2017-12-27T04:08:46.392Z,6.32
2017-12-27T04:11:14.572Z,7.57
2017-12-27T04:13:42.640Z,6.57
2017-12-27T04:16:10.832Z,5.85
2017-12-27T04:18:39.792Z,4.95
2017-12-27T04:21:08.112Z,5.70
2017-12-27T04:23:36.452Z,5.20
2017-12-27T04:26:04.532Z,4.93
2017-12-27T04:28:32.792Z,5.87
2017-12-27T04:31:00.973Z,4.68
2017-12-27T04:33:29.132Z,5.20
2017-12-27T04:35:57.312Z,5.80
2017-12-27T04:38:25.912Z,5.75
2017-12-27T04:40:55.212Z,6.10
2017-12-27T04:43:24.592Z,5.60
2017-12-27T04:45:53.032Z,3.60
2017-12-27T04:48:21.573Z,5.70
2017-12-27T04:50:50.952Z,5.18
2017-12-27T04:53:19.252Z,4.37
2017-12-27T04:55:48.333Z,4.05
2017-12-27T04:58:17.432Z,5.78
2017-12-27T05:00:45.592Z,4.62
2017-12-27T05:03:15.280Z,3.62
2017-12-27T05:05:43.652Z,3.40
2017-12-27T05:08:12.072Z,4.00
2017-12-27T05:10:40.552Z,4.62
2017-12-27T05:13:08.713Z,5.15
2017-12-27T05:15:36.892Z,4.03
2017-12-27T05:18:05.172Z,4.10
2017-12-27T05:20:33.292Z,3.70
2017-12-27T05:23:01.412Z,4.65
2017-12-27T05:25:29.572Z,3.17
2017-12-27T05:27:57.752Z,3.40
2017-12-27T05:30:25.992Z,3.72
2017-12-27T05:32:53.972Z,4.70
2017-12-27T05:35:22.272Z,4.07
2017-12-27T05:37:50.639Z,3.83
2017-12-27T05:40:18.715Z,3.75
2017-12-27T05:42:47.092Z,4.43
2017-12-27T05:45:15.372Z,5.68
2017-12-27T05:47:43.432Z,8.38
2017-12-27T05:50:11.512Z,4.90
2017-12-27T05:52:39.892Z,5.50
2017-12-27T05:55:08.372Z,5.53
2017-12-27T05:57:36.652Z,6.03
2017-12-27T06:00:05.032Z,5.47
2017-12-27T06:02:33.232Z,6.20
2017-12-27T06:05:01.692Z,8.32
2017-12-27T06:07:30.869Z,8.85
2017-12-27T06:09:59.127Z,7.97
2017-12-27T06:12:27.426Z,8.05
2017-12-27T06:14:57.274Z,6.85
2017-12-27T06:17:25.826Z,7.35
2017-12-27T06:19:54.106Z,5.93
2017-12-27T06:22:22.446Z,5.60
2017-12-27T06:24:50.946Z,7.20
2017-12-27T06:27:19.128Z,7.25
2017-12-27T06:29:47.306Z,7.90
2017-12-27T06:32:15.886Z,7.28
2017-12-27T06:34:44.306Z,6.60
2017-12-27T06:37:12.652Z,7.60
2017-12-27T06:39:41.886Z,6.93
2017-12-27T06:42:10.166Z,7.43
2017-12-27T06:44:38.586Z,6.62
2017-12-27T06:47:07.032Z,6.97
2017-12-27T06:49:35.112Z,7.40
2017-12-27T06:52:03.334Z,6.35
2017-12-27T06:54:32.512Z,7.50
2017-12-27T06:57:00.812Z,5.85
2017-12-27T06:59:28.992Z,5.60
2017-12-27T07:01:57.911Z,6.00
2017-12-27T07:04:26.112Z,7.45
2017-12-27T07:06:54.592Z,6.43
2017-12-27T07:09:22.871Z,5.53
2017-12-27T07:11:51.152Z,10.95
2017-12-27T07:14:19.432Z,6.37
2017-12-27T07:16:47.692Z,7.82
2017-12-27T07:19:16.211Z,6.15
2017-12-27T07:21:45.592Z,7.25
2017-12-27T07:24:14.092Z,6.80
2017-12-27T07:26:43.232Z,6.43
2017-12-27T07:29:11.752Z,6.00
2017-12-27T07:31:39.953Z,6.68
2017-12-27T07:34:08.372Z,8.15
2017-12-27T07:36:36.972Z,6.78
2017-12-27T07:39:05.832Z,13.93
2017-12-27T07:41:34.132Z,7.07
2017-12-27T07:44:02.615Z,9.05
2017-12-27T07:46:31.035Z,7.00
2017-12-27T07:48:59.355Z,8.57
2017-12-27T07:51:27.976Z,11.65
2017-12-27T07:53:57.295Z,10.52
2017-12-27T07:56:25.377Z,10.73
2017-12-27T07:58:53.815Z,12.98
2017-12-27T08:01:22.395Z,10.90
2017-12-27T08:03:50.775Z,12.15
2017-12-27T08:06:19.356Z,11.48
2017-12-27T08:08:47.523Z,9.60
2017-12-27T08:11:20.227Z,9.60
2017-12-27T08:13:49.713Z,10.63
2017-12-27T08:16:18.188Z,9.48
2017-12-27T08:18:46.472Z,11.70
2017-12-27T08:21:14.851Z,10.30
2017-12-27T08:23:42.991Z,11.30
2017-12-27T08:26:11.551Z,11.30
2017-12-27T08:28:39.971Z,15.07
2017-12-27T08:31:08.472Z,10.80
2017-12-27T08:33:37.613Z,12.77
2017-12-27T08:36:05.991Z,12.30
2017-12-27T08:38:34.751Z,13.65
2017-12-27T08:41:03.172Z,18.70
2017-12-27T08:43:31.690Z,12.13
2017-12-27T08:46:00.971Z,12.25
2017-12-27T08:48:29.240Z,11.35
2017-12-27T08:50:58.052Z,12.68
2017-12-27T08:53:26.411Z,12.37
2017-12-27T08:55:54.991Z,15.77
2017-12-27T08:58:23.371Z,16.58
2017-12-27T09:00:51.852Z,15.13
2017-12-27T09:03:20.134Z,17.85
2017-12-27T09:05:48.211Z,16.73
2017-12-27T09:08:16.572Z,18.23
2017-12-27T09:10:45.572Z,19.37
2017-12-27T09:13:14.071Z,14.25
2017-12-27T09:15:43.048Z,12.73
2017-12-27T09:18:11.191Z,18.87
2017-12-27T09:20:39.491Z,11.70
2017-12-27T09:23:07.871Z,14.60
2017-12-27T09:25:36.151Z,13.05
2017-12-27T09:28:04.531Z,13.73
2017-12-27T09:30:33.431Z,11.65
2017-12-27T09:33:02.391Z,13.48
2017-12-27T09:35:31.431Z,10.85
2017-12-27T09:38:00.611Z,12.85
2017-12-27T09:40:30.012Z,15.40
2017-12-27T09:42:59.431Z,13.85
2017-12-27T09:45:28.692Z,13.75
2017-12-27T09:47:57.112Z,28.83
2017-12-27T09:50:25.442Z,19.62
2017-12-27T09:52:54.043Z,17.20
2017-12-27T09:55:22.283Z,15.95
2017-12-27T09:57:50.643Z,11.35
2017-12-27T10:00:19.162Z,41.97
2017-12-27T10:02:47.534Z,41.25
2017-12-27T10:05:15.801Z,13.50
2017-12-27T10:07:44.201Z,48.38
2017-12-27T10:10:12.583Z,14.48
2017-12-27T10:12:40.764Z,12.70
2017-12-27T10:15:09.822Z,13.85
2017-12-27T10:17:38.301Z,17.45
2017-12-27T10:20:06.490Z,15.70
2017-12-27T10:22:34.942Z,12.88
2017-12-27T10:25:03.461Z,14.45
2017-12-27T10:27:31.698Z,14.10
2017-12-27T10:30:00.392Z,14.05
2017-12-27T10:32:29.113Z,14.27
2017-12-27T10:34:57.733Z,13.35
2017-12-27T10:37:26.365Z,13.50
2017-12-27T10:39:54.847Z,14.30
2017-12-27T10:42:23.445Z,14.40
2017-12-27T10:44:51.926Z,14.00
2017-12-27T10:47:19.974Z,13.65
2017-12-27T10:49:49.154Z,14.38
2017-12-27T10:52:17.521Z,12.68
2017-12-27T10:54:45.734Z,11.88
2017-12-27T10:57:14.220Z,14.38
2017-12-27T10:59:42.480Z,15.05
2017-12-27T11:02:10.960Z,14.32
2017-12-27T11:04:39.179Z,19.17
2017-12-27T11:07:07.519Z,14.77
2017-12-27T11:09:37.146Z,12.85
2017-12-27T11:12:06.539Z,15.20
2017-12-27T11:14:34.734Z,24.30
2017-12-27T11:17:03.593Z,17.23
2017-12-27T11:19:31.758Z,13.25
2017-12-27T11:22:00.138Z,17.95
2017-12-27T11:24:28.418Z,19.73
2017-12-27T11:26:56.598Z,19.10
2017-12-27T11:29:24.758Z,18.45
2017-12-27T11:31:52.943Z,18.45
2017-12-27T11:34:20.998Z,16.33
2017-12-27T11:36:49.158Z,17.42
2017-12-27T11:39:17.439Z,15.68
2017-12-27T11:41:45.617Z,16.90
2017-12-27T11:44:13.509Z,20.75
2017-12-27T11:46:42.807Z,27.08
2017-12-27T11:49:11.885Z,14.13
2017-12-27T11:51:40.365Z,31.87
2017-12-27T11:54:09.045Z,12.32
2017-12-27T11:56:37.285Z,16.95
2017-12-27T11:59:05.485Z,17.30
2017-12-27T12:01:33.465Z,14.43
2017-12-27T12:04:01.673Z,24.33
2017-12-27T12:06:30.734Z,11.48
2017-12-27T12:08:59.100Z,11.55
2017-12-27T12:11:27.493Z,13.95
2017-12-27T12:13:56.192Z,18.05
2017-12-27T12:16:26.012Z,19.92
2017-12-27T12:18:55.298Z,11.90
2017-12-27T12:21:23.572Z,14.07
2017-12-27T12:23:51.972Z,14.50
2017-12-27T12:26:21.152Z,15.55
2017-12-27T12:28:49.612Z,19.62
2017-12-27T12:31:18.012Z,20.17
2017-12-27T12:33:47.112Z,16.83
2017-12-27T12:36:16.372Z,13.48
2017-12-27T12:38:44.772Z,14.87
2017-12-27T12:41:13.552Z,14.10
2017-12-27T12:43:42.652Z,14.20
2017-12-27T12:46:10.932Z,14.65
2017-12-27T12:48:39.392Z,16.70
2017-12-27T12:51:07.712Z,11.07
2017-12-27T12:53:36.765Z,10.82
2017-12-27T12:56:05.144Z,11.55
2017-12-27T12:58:33.424Z,10.20
2017-12-27T13:01:01.925Z,7.78
2017-12-27T13:03:30.785Z,10.43
2017-12-27T13:05:58.945Z,10.55
2017-12-27T13:08:27.305Z,9.25
2017-12-27T13:10:55.614Z,8.80
2017-12-27T13:13:24.034Z,9.00
2017-12-27T13:15:53.294Z,10.07
2017-12-27T13:18:21.455Z,10.40
2017-12-27T13:20:49.954Z,10.63
2017-12-27T13:23:18.235Z,10.10
2017-12-27T13:25:46.374Z,9.18
2017-12-27T13:28:14.694Z,9.57
2017-12-27T13:30:43.834Z,9.25
2017-12-27T13:33:12.060Z,11.45
2017-12-27T13:35:40.734Z,11.90
2017-12-27T13:38:09.019Z,9.80
2017-12-27T13:40:38.310Z,11.07
2017-12-27T13:43:06.703Z,11.57
2017-12-27T13:45:37.023Z,13.05
2017-12-27T13:48:06.185Z,10.48
2017-12-27T13:50:34.666Z,9.63
2017-12-27T13:53:02.969Z,15.70
2017-12-27T13:55:31.104Z,13.50
2017-12-27T13:57:59.124Z,12.52
2017-12-27T14:00:28.183Z,16.50
2017-12-27T14:02:56.363Z,16.48
2017-12-27T14:05:24.648Z,13.25
2017-12-27T14:07:53.012Z,20.02
2017-12-27T14:10:21.293Z,15.63
2017-12-27T14:12:49.653Z,14.65
2017-12-27T14:15:17.953Z,12.98
2017-12-27T14:17:46.013Z,19.95
2017-12-27T14:20:14.193Z,11.77
2017-12-27T14:22:44.133Z,9.73
2017-12-27T14:25:13.214Z,12.77
2017-12-27T14:27:42.295Z,13.45
2017-12-27T14:30:10.578Z,9.85
2017-12-27T14:32:38.856Z,4.65
2017-12-27T14:35:07.227Z,13.65
2017-12-27T14:37:35.511Z,12.48
2017-12-27T14:40:03.527Z,9.63
2017-12-27T14:42:32.808Z,7.75
2017-12-27T14:45:01.047Z,9.75
2017-12-27T14:47:29.227Z,8.60
2017-12-27T14:49:58.627Z,25.00
2017-12-27T14:52:26.887Z,20.70
2017-12-27T14:54:54.947Z,8.23
2017-12-27T14:57:23.256Z,15.80
2017-12-27T14:59:51.659Z,9.68
2017-12-27T15:02:20.197Z,9.18
2017-12-27T15:04:48.510Z,8.50
2017-12-27T15:07:17.669Z,11.90
2017-12-27T15:09:45.849Z,13.30
2017-12-27T15:12:14.709Z,7.90
2017-12-27T15:14:42.909Z,9.27
2017-12-27T15:17:11.189Z,6.87
2017-12-27T15:19:39.549Z,8.38
2017-12-27T15:22:08.250Z,12.40
2017-12-27T15:24:36.829Z,7.07
2017-12-27T15:27:05.009Z,12.20
2017-12-27T15:29:33.530Z,8.82
2017-12-27T15:32:01.809Z,10.95
2017-12-27T15:34:30.150Z,8.38
2017-12-27T15:36:58.949Z,9.48
2017-12-27T15:39:28.109Z,7.93
2017-12-27T15:41:56.280Z,8.88
2017-12-27T15:44:24.640Z,10.43
2017-12-27T15:46:52.941Z,12.88
2017-12-27T15:49:21.564Z,9.38
2017-12-27T15:51:50.543Z,12.00
2017-12-27T15:54:19.624Z,12.50
2017-12-27T15:56:47.802Z,9.77
2017-12-27T15:59:17.103Z,9.02
2017-12-27T16:01:45.241Z,6.28
2017-12-27T16:04:13.462Z,6.72
2017-12-27T16:06:42.662Z,20.95
2017-12-27T16:09:11.701Z,8.93
2017-12-27T16:11:40.101Z,17.25
2017-12-27T16:14:08.421Z,8.98
2017-12-27T16:16:36.771Z,7.90
2017-12-27T16:19:05.101Z,9.10
2017-12-27T16:21:33.261Z,16.55
2017-12-27T16:24:01.681Z,7.35
2017-12-27T16:26:30.166Z,9.32
2017-12-27T16:28:58.441Z,7.87
2017-12-27T16:31:26.621Z,8.82
2017-12-27T16:33:54.681Z,11.12
2017-12-27T16:36:23.061Z,10.18
2017-12-27T16:38:51.341Z,8.88
2017-12-27T16:41:20.143Z,12.75
2017-12-27T16:43:49.441Z,12.75
2017-12-27T16:46:18.621Z,7.97
2017-12-27T16:48:46.781Z,10.90
2017-12-27T16:51:15.381Z,8.88
2017-12-27T16:53:44.183Z,16.45
2017-12-27T16:56:13.241Z,9.70
2017-12-27T16:58:41.841Z,9.27
2017-12-27T17:01:10.363Z,14.50
2017-12-27T17:03:38.821Z,11.50
2017-12-27T17:06:08.023Z,12.35
2017-12-27T17:08:37.101Z,24.05
2017-12-27T17:11:05.282Z,14.02
2017-12-27T17:13:33.441Z,14.25
2017-12-27T17:16:01.722Z,11.70
2017-12-27T17:18:30.082Z,10.50
2017-12-27T17:20:58.381Z,11.57
2017-12-27T17:23:27.421Z,10.15
2017-12-27T17:25:55.943Z,9.60
2017-12-27T17:28:24.183Z,13.23
2017-12-27T17:30:52.362Z,12.30
2017-12-27T17:33:20.473Z,10.43
2017-12-27T17:35:48.812Z,10.80
2017-12-27T17:38:17.212Z,9.10
2017-12-27T17:40:45.491Z,7.85
2017-12-27T17:43:15.511Z,6.90
2017-12-27T17:45:43.792Z,8.20
2017-12-27T17:48:11.951Z,5.72
2017-12-27T17:50:40.255Z,4.85
2017-12-27T17:53:09.871Z,6.03
2017-12-27T17:55:39.172Z,5.00
2017-12-27T17:58:08.773Z,5.47
2017-12-27T18:00:37.832Z,5.43
2017-12-27T18:03:06.293Z,8.73
2017-12-27T18:05:34.691Z,4.80
2017-12-27T18:08:03.091Z,4.85
2017-12-27T18:10:31.173Z,4.80
2017-12-27T18:13:00.292Z,10.52
2017-12-27T18:15:28.672Z,6.47
2017-12-27T18:17:58.032Z,4.55
2017-12-27T18:20:27.133Z,4.45
2017-12-27T18:22:56.390Z,4.93
2017-12-27T18:25:24.491Z,8.23
2017-12-27T18:27:52.978Z,3.70
2017-12-27T18:30:21.211Z,4.90
2017-12-27T18:32:49.612Z,16.95
2017-12-27T18:35:17.853Z,6.50
2017-12-27T18:37:45.932Z,5.45
2017-12-27T18:40:14.213Z,5.70
2017-12-27T18:42:42.412Z,5.40
2017-12-27T18:45:10.794Z,3.50
2017-12-27T18:47:38.972Z,2.55
2017-12-27T18:50:08.772Z,2.75
2017-12-27T18:52:38.251Z,3.28
2017-12-27T18:55:06.651Z,4.40
2017-12-27T18:57:34.991Z,7.75
2017-12-27T19:00:03.213Z,9.57
2017-12-27T19:02:33.351Z,10.75
2017-12-27T19:05:02.671Z,6.00
2017-12-27T19:07:31.034Z,9.05
2017-12-27T19:10:01.311Z,9.18
2017-12-27T19:12:29.911Z,10.48
2017-12-27T19:14:58.471Z,10.38
2017-12-27T19:17:27.191Z,6.15
2017-12-27T19:19:56.692Z,3.65
2017-12-27T19:22:25.212Z,4.45
2017-12-27T19:24:53.851Z,4.82
2017-12-27T19:27:22.251Z,13.00
2017-12-27T19:29:51.632Z,5.28
2017-12-27T19:32:20.031Z,6.25
2017-12-27T19:34:49.532Z,4.37
2017-12-27T19:37:18.991Z,4.57
2017-12-27T19:39:47.673Z,8.63
2017-12-27T19:42:16.272Z,5.57
2017-12-27T19:44:44.932Z,8.38
2017-12-27T19:47:13.814Z,6.50
2017-12-27T19:49:42.551Z,6.47
2017-12-27T19:52:10.916Z,6.00
2017-12-27T19:54:39.932Z,5.40
2017-12-27T19:57:09.531Z,17.83
2017-12-27T19:59:38.191Z,9.35
2017-12-27T20:02:06.753Z,4.62
2017-12-27T20:04:35.671Z,4.60
2017-12-27T20:07:04.372Z,19.08
2017-12-27T20:09:33.052Z,7.53
2017-12-27T20:12:01.772Z,6.85
2017-12-27T20:14:30.351Z,6.95
2017-12-27T20:16:59.131Z,6.75
2017-12-27T20:19:28.591Z,7.03
2017-12-27T20:21:57.096Z,8.30
2017-12-27T20:24:26.683Z,6.47
2017-12-27T20:26:55.504Z,6.80
2017-12-27T20:29:25.183Z,5.37
2017-12-27T20:31:53.804Z,5.57
2017-12-27T20:34:23.243Z,4.45
2017-12-27T20:36:52.044Z,4.05
2017-12-27T20:39:20.863Z,3.75
2017-12-27T20:41:49.589Z,2.90
2017-12-27T20:44:18.506Z,4.00
2017-12-27T20:46:47.083Z,3.80
2017-12-27T20:49:15.684Z,3.95
2017-12-27T20:51:44.003Z,4.50
2017-12-27T20:54:12.304Z,3.95
2017-12-27T20:56:40.827Z,3.20
2017-12-27T20:59:09.604Z,2.05
2017-12-27T21:01:38.123Z,3.83
2017-12-27T21:04:07.465Z,2.90
2017-12-27T21:06:36.166Z,4.47
2017-12-27T21:09:04.923Z,3.87
2017-12-27T21:11:33.743Z,3.67
2017-12-27T21:14:02.304Z,3.70
2017-12-27T21:16:31.044Z,2.50
2017-12-27T21:19:00.623Z,2.08
2017-12-27T21:21:30.645Z,1.90
2017-12-27T21:23:59.031Z,2.58
2017-12-27T21:26:27.563Z,2.70
2017-12-27T21:28:55.984Z,3.70
2017-12-27T21:31:23.984Z,2.20
2017-12-27T21:33:52.344Z,2.60
2017-12-27T21:36:21.323Z,2.20
2017-12-27T21:38:50.046Z,2.20
2017-12-27T21:41:18.683Z,4.85
2017-12-27T21:43:47.303Z,1.95
2017-12-27T21:46:16.183Z,2.92
2017-12-27T21:48:50.883Z,2.50
2017-12-27T21:51:19.383Z,4.70
2017-12-27T21:53:47.943Z,2.85
2017-12-27T21:56:16.283Z,1.92
2017-12-27T21:58:50.123Z,2.50
2017-12-27T22:01:24.097Z,2.45
2017-12-27T22:03:52.823Z,2.80
2017-12-27T22:06:21.425Z,2.33
2017-12-27T22:08:49.783Z,2.80
2017-12-27T22:11:18.003Z,2.42
2017-12-27T22:13:46.503Z,2.67
2017-12-27T22:16:14.923Z,2.55
2017-12-27T22:18:43.103Z,3.10
2017-12-27T22:21:11.363Z,2.95
2017-12-27T22:23:39.423Z,2.72
2017-12-27T22:26:07.803Z,3.22
2017-12-27T22:28:36.103Z,3.60
2017-12-27T22:31:04.423Z,4.40
2017-12-27T22:33:32.943Z,3.42
2017-12-27T22:36:01.323Z,3.42
2017-12-27T22:38:29.763Z,3.87
2017-12-27T22:40:57.988Z,2.72
2017-12-27T22:43:26.263Z,2.25
2017-12-27T22:45:54.544Z,4.10
2017-12-27T22:48:22.803Z,2.67
2017-12-27T22:50:51.183Z,2.60
2017-12-27T22:53:19.629Z,2.90
2017-12-27T22:55:48.003Z,2.78
2017-12-27T22:58:16.444Z,2.87
2017-12-27T23:00:45.764Z,1.60
2017-12-27T23:03:14.423Z,2.78
2017-12-27T23:05:43.547Z,3.50
2017-12-27T23:08:12.184Z,7.32
2017-12-27T23:10:40.643Z,1.80
2017-12-27T23:13:09.343Z,2.80
2017-12-27T23:15:37.844Z,3.33
2017-12-27T23:18:06.224Z,5.55
2017-12-27T23:20:35.103Z,3.70
2017-12-27T23:23:03.544Z,1.90
2017-12-27T23:25:31.762Z,2.70
2017-12-27T23:27:59.883Z,2.35
2017-12-27T23:30:27.991Z,2.60
2017-12-27T23:32:57.797Z,2.55
2017-12-27T23:35:26.335Z,2.55
2017-12-27T23:37:54.460Z,2.53
2017-12-27T23:40:23.613Z,2.20
2017-12-27T23:42:51.733Z,1.90
2017-12-27T23:45:20.153Z,2.10
2017-12-27T23:47:48.273Z,1.98
2017-12-27T23:50:16.553Z,2.10
2017-12-27T23:52:44.953Z,6.47
2017-12-27T23:55:14.133Z,2.12
2017-12-27T23:57:42.294Z,1.60
